Dades meteomassalio
Diari Summary for Juliol 18, 2017 Units:  Metric    English   Both
« Previous Day
Next Day »
Diari Semanal Mensual Anual Personalitzat
  Maxima: Minima: Mijana:
Temperatura: 34.6 °C 18.9 °C 26.5 °C
Rosada: 19.2 °C 12.1 °C 17.2 °C
Humitat: 87 % 31 % 60 %
Velocitat del vent: 37.0 km/h 0.0 km/h 10.4 km/h
Racha vent: 37.0 km/h - -
Vent:- - ESE
Pressio: 1016.5 hPa 1010.0 hPa -
Pluja: 0.0 mm    
Historical Graphs
 
 
Tabular Data for Juliol 18, 2017
Time Temperature Dew Point Pressure Wind Wind Speed Wind Gust Humidity Rainfall Rate (Hourly) solar Conditions
00:02 24.8 °C 14.8 °C 1015.1 hPa Calm     54 % 0.0 mm 0.0 W/m2 RA
00:07 24.6 °C 14.9 °C 1015.1 hPa Calm   0.2 km/h 55 % 0.0 mm 0.0 W/m2 CLR
00:12 24.5 °C 15.2 °C 1015.1 hPa Calm     56 % 0.0 mm 0.0 W/m2 CLR
00:17 24.3 °C 15.8 °C 1015.1 hPa Calm     59 % 0.0 mm 0.0 W/m2 CLR
00:22 24.1 °C 16.6 °C 1015.1 hPa Calm     63 % 0.0 mm 0.0 W/m2 CLR
00:27 23.7 °C 17.0 °C 1015.1 hPa Calm     66 % 0.0 mm 0.0 W/m2 CLR
00:32 23.3 °C 17.1 °C 1014.8 hPa Calm     68 % 0.0 mm 0.0 W/m2 CLR
00:37 23.2 °C 17.2 °C 1014.8 hPa Calm     69 % 0.0 mm 0.0 W/m2 CLR
00:42 23.1 °C 17.3 °C 1014.8 hPa Calm     70 % 0.0 mm 0.0 W/m2 CLR
00:47 23.0 °C 17.2 °C 1014.8 hPa Calm     70 % 0.0 mm 0.0 W/m2 CLR
00:52 22.9 °C 17.1 °C 1014.8 hPa Calm     70 % 0.0 mm 0.0 W/m2 CLR
00:57 22.8 °C 17.2 °C 1014.8 hPa Calm     71 % 0.0 mm 0.0 W/m2 CLR
01:02 22.7 °C 16.9 °C 1014.4 hPa Calm     70 % 0.0 mm 0.0 W/m2 CLR
01:07 22.8 °C 16.8 °C 1014.4 hPa SE 3.7 km/h 3.7 km/h 69 % 0.0 mm 0.0 W/m2 CLR
01:12 22.9 °C 16.9 °C 1014.4 hPa Calm   0.3 km/h 69 % 0.0 mm 0.0 W/m2 CLR
01:17 23.0 °C 17.0 °C 1014.4 hPa Calm     69 % 0.0 mm 0.0 W/m2 CLR
01:22 23.0 °C 17.0 °C 1014.8 hPa Calm     69 % 0.0 mm 0.0 W/m2 CLR
01:27 22.9 °C 16.9 °C 1014.8 hPa Calm     69 % 0.0 mm 0.0 W/m2 CLR
01:32 22.9 °C 17.1 °C 1014.4 hPa Calm     70 % 0.0 mm 0.0 W/m2 CLR
01:37 22.8 °C 17.3 °C 1014.4 hPa Calm     71 % 0.0 mm 0.0 W/m2 CLR
01:42 22.7 °C 17.2 °C 1014.4 hPa Calm     71 % 0.0 mm 0.0 W/m2 CLR
01:47 22.6 °C 17.3 °C 1014.4 hPa Calm     72 % 0.0 mm 0.0 W/m2 CLR
01:52 22.6 °C 17.3 °C 1014.4 hPa Calm     72 % 0.0 mm 0.0 W/m2 CLR
01:57 22.6 °C 17.4 °C 1014.8 hPa Calm     73 % 0.0 mm 0.0 W/m2 CLR
01:58 22.6 °C 17.4 °C 1014.8 hPa Calm     73 % 0.0 mm 0.0 W/m2 CLR
02:03 22.6 °C 17.4 °C 1014.4 hPa Calm     73 % 0.0 mm 0.0 W/m2 CLR
02:08 22.4 °C 17.4 °C 1014.4 hPa Calm     73 % 0.0 mm 0.0 W/m2 CLR
02:13 22.3 °C 17.4 °C 1014.4 hPa Calm     74 % 0.0 mm 0.0 W/m2 CLR
02:18 22.3 °C 17.4 °C 1014.4 hPa Calm     74 % 0.0 mm 0.0 W/m2 CLR
02:23 22.3 °C 17.7 °C 1014.4 hPa Calm     75 % 0.0 mm 0.0 W/m2 CLR
02:28 22.3 °C 17.6 °C 1014.4 hPa Calm     75 % 0.0 mm 0.0 W/m2 CLR
02:33 22.1 °C 17.4 °C 1014.8 hPa Calm     75 % 0.0 mm 0.0 W/m2 CLR
02:38 21.9 °C 17.4 °C 1014.8 hPa Calm     76 % 0.0 mm 0.0 W/m2 CLR
02:43 21.6 °C 17.2 °C 1014.8 hPa Calm     76 % 0.0 mm 0.0 W/m2 CLR
02:48 21.4 °C 17.0 °C 1014.4 hPa Calm     76 % 0.0 mm 0.0 W/m2 CLR
02:53 21.3 °C 17.1 °C 1014.4 hPa Calm     77 % 0.0 mm 0.0 W/m2 CLR
02:58 21.4 °C 17.2 °C 1014.4 hPa Calm     77 % 0.0 mm 0.0 W/m2 CLR
03:03 21.4 °C 17.2 °C 1014.4 hPa Calm     77 % 0.0 mm 0.0 W/m2 CLR
03:08 21.4 °C 17.2 °C 1014.4 hPa Calm     77 % 0.0 mm 0.0 W/m2 CLR
03:13 21.6 °C 16.9 °C 1014.4 hPa Calm     75 % 0.0 mm 0.0 W/m2 CLR
03:18 21.8 °C 16.9 °C 1014.4 hPa SE 5.6 km/h 5.6 km/h 74 % 0.0 mm 0.0 W/m2 CLR
03:23 22.1 °C 17.2 °C 1014.4 hPa ESE 3.2 km/h   74 % 0.0 mm 0.0 W/m2 CLR
03:28 22.2 °C 17.1 °C 1014.4 hPa Calm     73 % 0.0 mm 0.0 W/m2 CLR
03:33 22.2 °C 17.1 °C 1014.4 hPa Calm     73 % 0.0 mm 0.0 W/m2 CLR
03:38 22.2 °C 16.9 °C 1014.1 hPa Calm     72 % 0.0 mm 0.0 W/m2 CLR
03:43 22.2 °C 16.9 °C 1014.1 hPa Calm     72 % 0.0 mm 0.0 W/m2 CLR
03:48 21.9 °C 17.1 °C 1014.1 hPa NNE 1.6 km/h   74 % 0.0 mm 0.0 W/m2 CLR
03:53 21.7 °C 17.1 °C 1014.1 hPa Calm     75 % 0.0 mm 0.0 W/m2 CLR
03:58 21.4 °C 17.2 °C 1014.1 hPa Calm     77 % 0.0 mm 0.0 W/m2 CLR
04:03 21.4 °C 17.6 °C 1014.1 hPa NE 1.6 km/h 1.6 km/h 79 % 0.0 mm 0.0 W/m2 CLR
04:08 21.4 °C 17.8 °C 1014.1 hPa Calm     80 % 0.0 mm 0.0 W/m2 CLR
04:13 21.4 °C 17.8 °C 1014.1 hPa Calm     80 % 0.0 mm 0.0 W/m2 CLR
04:18 21.3 °C 17.9 °C 1014.1 hPa Calm     81 % 0.0 mm 0.0 W/m2 CLR
04:23 21.2 °C 17.8 °C 1014.1 hPa Calm     81 % 0.0 mm 0.0 W/m2 CLR
04:28 21.2 °C 17.8 °C 1014.1 hPa Calm     81 % 0.0 mm 0.0 W/m2 CLR
04:33 21.1 °C 17.7 °C 1013.8 hPa Calm     81 % 0.0 mm 0.0 W/m2 CLR
04:38 21.1 °C 17.7 °C 1013.8 hPa Calm     81 % 0.0 mm 0.0 W/m2 CLR
04:43 21.0 °C 17.4 °C 1013.8 hPa Calm     80 % 0.0 mm 0.0 W/m2 CLR
04:48 21.0 °C 17.6 °C 1013.8 hPa Calm     81 % 0.0 mm 0.0 W/m2 CLR
04:53 21.0 °C 17.6 °C 1013.8 hPa Calm     81 % 0.0 mm 0.0 W/m2 CLR
04:58 20.8 °C 17.3 °C 1013.8 hPa Calm     80 % 0.0 mm 0.0 W/m2 CLR
05:03 20.7 °C 17.1 °C 1013.8 hPa Calm     80 % 0.0 mm 0.0 W/m2 CLR
05:08 20.6 °C 17.2 °C 1013.8 hPa Calm     81 % 0.0 mm 0.0 W/m2 CLR
05:13 20.5 °C 17.3 °C 1013.8 hPa Calm     82 % 0.0 mm 0.0 W/m2 CLR
05:18 20.6 °C 17.4 °C 1013.8 hPa Calm     82 % 0.0 mm 0.0 W/m2 CLR
05:23 20.6 °C 17.4 °C 1013.8 hPa Calm     82 % 0.0 mm 0.0 W/m2 CLR
05:28 20.7 °C 17.5 °C 1013.8 hPa Calm     82 % 0.0 mm 0.0 W/m2 CLR
05:33 20.6 °C 17.0 °C 1013.8 hPa Calm     80 % 0.0 mm 0.0 W/m2 CLR
05:38 20.4 °C 17.1 °C 1013.8 hPa Calm     81 % 0.0 mm 0.0 W/m2 CLR
05:43 20.2 °C 16.8 °C 1013.8 hPa Calm     81 % 0.0 mm 0.0 W/m2 CLR
05:48 20.1 °C 16.9 °C 1013.8 hPa Calm     82 % 0.0 mm 0.0 W/m2 CLR
05:53 19.9 °C 16.9 °C 1013.8 hPa Calm     83 % 0.0 mm 0.0 W/m2 CLR
05:58 19.9 °C 17.2 °C 1013.8 hPa Calm     84 % 0.0 mm 0.0 W/m2 CLR
06:03 20.1 °C 17.1 °C 1013.8 hPa Calm     83 % 0.0 mm 0.0 W/m2 CLR
06:08 20.1 °C 17.1 °C 1013.8 hPa Calm     83 % 0.0 mm 0.0 W/m2 CLR
06:13 20.2 °C 17.1 °C 1013.8 hPa Calm     82 % 0.0 mm 0.0 W/m2 CLR
06:18 20.4 °C 17.2 °C 1013.8 hPa Calm     82 % 0.0 mm 0.0 W/m2 CLR
06:24 20.4 °C 16.8 °C 1014.1 hPa Calm     80 % 0.0 mm 0.0 W/m2 CLR
06:29 20.2 °C 16.8 °C 1014.1 hPa Calm     81 % 0.0 mm 0.0 W/m2 CLR
06:34 19.9 °C 16.6 °C 1014.1 hPa Calm     81 % 0.0 mm 0.0 W/m2 OVC
06:39 19.7 °C 16.8 °C 1014.1 hPa Calm     83 % 0.0 mm 0.0 W/m2 OVC
06:43 19.6 °C 16.6 °C 1014.1 hPa Calm     83 % 0.0 mm 0.0 W/m2 OVC
06:49 19.5 °C 16.7 °C 1014.1 hPa Calm     84 % 0.0 mm 5.0 W/m2 OVC
06:54 19.3 °C 16.6 °C 1014.1 hPa Calm     84 % 0.0 mm 9.0 W/m2 BKN
06:59 19.3 °C 16.7 °C 1014.1 hPa Calm     85 % 0.0 mm 11.0 W/m2 BKN
07:04 19.3 °C 16.7 °C 1014.1 hPa Calm     85 % 0.0 mm 14.0 W/m2 BKN
07:09 19.1 °C 16.6 °C 1014.1 hPa Calm     85 % 0.0 mm 19.0 W/m2 BKN
07:14 18.9 °C 16.4 °C 1014.1 hPa Calm     85 % 0.0 mm 25.0 W/m2 BKN
07:19 18.9 °C 16.4 °C 1014.4 hPa Calm     85 % 0.0 mm 32.0 W/m2 BKN
07:24 19.0 °C 16.6 °C 1014.4 hPa Calm     86 % 0.0 mm 37.0 W/m2 BKN
07:29 19.0 °C 16.6 °C 1014.4 hPa Calm     86 % 0.0 mm 47.0 W/m2 SCT
07:34 19.1 °C 16.7 °C 1014.4 hPa Calm     86 % 0.0 mm 56.0 W/m2 SCT
07:39 19.2 °C 17.0 °C 1014.4 hPa Calm     87 % 0.0 mm 70.0 W/m2 FEW
07:44 19.2 °C 16.8 °C 1014.4 hPa Calm     86 % 0.0 mm 86.0 W/m2 FEW
07:49 19.3 °C 16.9 °C 1014.4 hPa Calm     86 % 0.0 mm 107.0 W/m2 CLR
07:54 19.4 °C 16.8 °C 1014.4 hPa Calm     85 % 0.0 mm 111.0 W/m2 CLR
07:59 19.6 °C 16.9 °C 1014.4 hPa Calm     85 % 0.0 mm 102.0 W/m2 CLR
08:04 19.7 °C 17.1 °C 1014.4 hPa Calm     85 % 0.0 mm 100.0 W/m2 CLR
08:09 19.9 °C 17.3 °C 1014.4 hPa Calm     85 % 0.0 mm 100.0 W/m2 CLR
08:14 20.1 °C 17.3 °C 1014.4 hPa Calm     84 % 0.0 mm 111.0 W/m2 CLR
08:19 20.3 °C 17.3 °C 1014.8 hPa Calm     83 % 0.0 mm 135.0 W/m2 CLR
08:24 20.5 °C 17.5 °C 1014.8 hPa Calm     83 % 0.0 mm 125.0 W/m2 CLR
08:29 20.8 °C 17.6 °C 1014.8 hPa Calm     82 % 0.0 mm 111.0 W/m2 CLR
08:34 20.9 °C 17.6 °C 1014.8 hPa Calm     81 % 0.0 mm 107.0 W/m2 CLR
08:39 21.1 °C 17.7 °C 1014.8 hPa Calm     81 % 0.0 mm 137.0 W/m2 CLR
08:44 21.3 °C 17.7 °C 1014.8 hPa Calm     80 % 0.0 mm 237.0 W/m2 CLR
08:49 21.6 °C 17.8 °C 1014.8 hPa Calm     79 % 0.0 mm 248.0 W/m2 CLR
08:54 21.8 °C 17.6 °C 1014.8 hPa Calm     77 % 0.0 mm 153.0 W/m2 CLR
08:59 22.1 °C 17.7 °C 1014.8 hPa Calm     76 % 0.0 mm 206.0 W/m2 CLR
09:04 22.5 °C 17.6 °C 1014.8 hPa Calm     74 % 0.0 mm 292.0 W/m2 CLR
09:09 22.9 °C 17.4 °C 1014.8 hPa Calm     71 % 0.0 mm 244.0 W/m2 CLR
09:14 23.4 °C 17.9 °C 1014.8 hPa Calm     71 % 0.0 mm 399.0 W/m2 CLR
09:19 24.1 °C 18.2 °C 1014.8 hPa Calm     70 % 0.0 mm 381.0 W/m2 CLR
09:24 24.6 °C 18.3 °C 1014.8 hPa Calm     68 % 0.0 mm 343.0 W/m2 CLR
09:29 25.1 °C 18.3 °C 1014.8 hPa Calm     66 % 0.0 mm 144.0 W/m2 CLR
09:34 25.3 °C 18.1 °C 1014.8 hPa Calm     64 % 0.0 mm 128.0 W/m2 CLR
09:39 25.3 °C 18.0 °C 1014.8 hPa Calm     64 % 0.0 mm 127.0 W/m2 CLR
09:44 25.2 °C 18.1 °C 1014.8 hPa Calm     65 % 0.0 mm 125.0 W/m2 CLR
09:49 25.1 °C 18.1 °C 1014.8 hPa Calm     65 % 0.0 mm 128.0 W/m2 CLR
09:54 25.1 °C 18.1 °C 1014.8 hPa Calm     65 % 0.0 mm 97.0 W/m2 CLR
09:59 25.1 °C 17.8 °C 1014.8 hPa Calm     64 % 0.0 mm 97.0 W/m2 CLR
10:04 25.1 °C 17.6 °C 1014.8 hPa Calm     63 % 0.0 mm 204.0 W/m2 CLR
10:09 25.3 °C 18.1 °C 1014.8 hPa Calm     64 % 0.0 mm 485.0 W/m2 CLR
10:14 25.8 °C 18.3 °C 1014.8 hPa Calm     63 % 0.0 mm 506.0 W/m2 CLR
10:20 26.4 °C 18.3 °C 1014.4 hPa Calm     61 % 0.0 mm 529.0 W/m2 CLR
10:25 26.9 °C 17.4 °C 1014.8 hPa Calm     56 % 0.0 mm 545.0 W/m2 CLR
10:30 27.3 °C 18.1 °C 1014.8 hPa Calm     57 % 0.0 mm 555.0 W/m2 CLR
10:35 27.6 °C 18.6 °C 1014.4 hPa Calm     58 % 0.0 mm 571.0 W/m2 CLR
10:40 27.7 °C 17.6 °C 1014.4 hPa Calm     54 % 0.0 mm 585.0 W/m2 CLR
10:45 27.8 °C 16.4 °C 1014.4 hPa Calm     50 % 0.0 mm 599.0 W/m2 CLR
10:50 27.9 °C 16.2 °C 1014.4 hPa ENE 3.7 km/h 3.7 km/h 49 % 0.0 mm 615.0 W/m2 CLR
10:55 28.1 °C 16.4 °C 1014.4 hPa ENE 3.7 km/h   49 % 0.0 mm 631.0 W/m2 CLR
11:00 28.4 °C 16.3 °C 1014.4 hPa ENE 8.0 km/h 8.0 km/h 48 % 0.0 mm 643.0 W/m2 CLR
11:05 28.7 °C 13.7 °C 1014.1 hPa SE 16.7 km/h 16.7 km/h 40 % 0.0 mm 661.0 W/m2 CLR
11:10 29.0 °C 13.7 °C 1014.1 hPa ESE 13.0 km/h 13.0 km/h 39 % 0.0 mm 671.0 W/m2 CLR
11:15 29.1 °C 12.5 °C 1014.1 hPa SE 19.3 km/h 19.3 km/h 36 % 0.0 mm 684.0 W/m2 CLR
11:20 29.1 °C 12.4 °C 1014.1 hPa SE 18.5 km/h 18.5 km/h 36 % 0.0 mm 696.0 W/m2 CLR
11:25 29.2 °C 12.2 °C 1014.1 hPa SE 18.5 km/h 18.5 km/h 35 % 0.0 mm 710.0 W/m2 CLR
11:30 29.3 °C 12.3 °C 1014.1 hPa ESE 20.4 km/h 20.4 km/h 35 % 0.0 mm 724.0 W/m2 CLR
11:35 29.4 °C 12.4 °C 1014.1 hPa SE 18.5 km/h 18.5 km/h 35 % 0.0 mm 737.0 W/m2 CLR
11:40 29.6 °C 12.1 °C 1013.8 hPa SE 14.8 km/h 14.8 km/h 34 % 0.0 mm 749.0 W/m2 CLR
11:45 29.8 °C 12.2 °C 1013.8 hPa SE 9.3 km/h 9.3 km/h 34 % 0.0 mm 752.0 W/m2 CLR
11:50 30.1 °C 12.1 °C 1013.8 hPa SSE 16.7 km/h 16.7 km/h 33 % 0.0 mm 763.0 W/m2 CLR
11:55 30.3 °C 12.7 °C 1013.8 hPa SE 13.0 km/h 13.0 km/h 34 % 0.0 mm 772.0 W/m2 CLR
12:00 30.5 °C 12.9 °C 1013.8 hPa SSE 18.5 km/h 18.5 km/h 34 % 0.0 mm 779.0 W/m2 CLR
12:05 30.6 °C 13.3 °C 1013.8 hPa East 3.7 km/h 3.7 km/h 35 % 0.0 mm 788.0 W/m2 CLR
12:10 30.8 °C 13.6 °C 1013.8 hPa ESE 14.8 km/h 14.8 km/h 35 % 0.0 mm 795.0 W/m2 CLR
12:15 31.3 °C 14.4 °C 1013.8 hPa ESE 3.7 km/h 3.7 km/h 36 % 0.0 mm 807.0 W/m2 CLR
12:20 31.7 °C 13.4 °C 1013.4 hPa SE 5.6 km/h 5.6 km/h 33 % 0.0 mm 814.0 W/m2 CLR
12:25 32.0 °C 14.6 °C 1013.4 hPa ESE 11.1 km/h 11.1 km/h 35 % 0.0 mm 819.0 W/m2 CLR
12:30 32.2 °C 14.4 °C 1013.4 hPa ENE 7.4 km/h 7.4 km/h 34 % 0.0 mm 830.0 W/m2 CLR
12:35 32.3 °C 14.4 °C 1013.4 hPa ENE 4.8 km/h 4.8 km/h 34 % 0.0 mm 833.0 W/m2 CLR
12:40 32.4 °C 13.6 °C 1013.4 hPa ENE 11.1 km/h 11.1 km/h 32 % 0.0 mm 838.0 W/m2 CLR
12:45 32.4 °C 14.1 °C 1013.4 hPa ESE 3.7 km/h 3.7 km/h 33 % 0.0 mm 844.0 W/m2 CLR
12:50 32.6 °C 14.7 °C 1013.4 hPa East 11.1 km/h 11.1 km/h 34 % 0.0 mm 853.0 W/m2 CLR
12:55 32.8 °C 14.4 °C 1013.4 hPa ESE 18.5 km/h 18.5 km/h 33 % 0.0 mm 856.0 W/m2 CLR
13:00 32.9 °C 14.6 °C 1013.4 hPa East 9.7 km/h 9.7 km/h 33 % 0.0 mm 865.0 W/m2 CLR
13:05 33.2 °C 14.7 °C 1013.1 hPa East 13.0 km/h 13.0 km/h 33 % 0.0 mm 867.0 W/m2 CLR
13:10 33.4 °C 14.9 °C 1013.1 hPa ENE 16.7 km/h 16.7 km/h 33 % 0.0 mm 874.0 W/m2 CLR
13:15 33.4 °C 14.5 °C 1013.1 hPa East 18.5 km/h 18.5 km/h 32 % 0.0 mm 877.0 W/m2 CLR
13:20 33.4 °C 14.4 °C 1013.1 hPa East 14.8 km/h 14.8 km/h 32 % 0.0 mm 881.0 W/m2 CLR
13:25 33.6 °C 14.6 °C 1012.8 hPa SE 16.7 km/h 16.7 km/h 32 % 0.0 mm 881.0 W/m2 CLR
13:30 33.7 °C 14.2 °C 1012.8 hPa ESE 13.0 km/h 13.0 km/h 31 % 0.0 mm 886.0 W/m2 CLR
13:31 33.7 °C 14.7 °C 1012.8 hPa East 13.0 km/h 13.0 km/h 32 % 0.0 mm 886.0 W/m2 CLR
13:36 33.9 °C 15.3 °C 1012.8 hPa East 14.8 km/h 14.8 km/h 33 % 0.0 mm 889.0 W/m2 CLR
13:41 33.9 °C 14.9 °C 1012.4 hPa ENE 20.4 km/h 20.4 km/h 32 % 0.0 mm 895.0 W/m2 CLR
13:46 34.3 °C 14.7 °C 1012.8 hPa East 18.5 km/h 18.5 km/h 31 % 0.0 mm 895.0 W/m2 CLR
13:51 34.4 °C 15.3 °C 1012.4 hPa East 13.0 km/h 13.0 km/h 32 % 0.0 mm 898.0 W/m2 CLR
13:56 34.4 °C 16.3 °C 1012.4 hPa East 18.5 km/h 18.5 km/h 34 % 0.0 mm 911.0 W/m2 CLR
14:01 34.2 °C 16.1 °C 1012.4 hPa ESE 24.1 km/h 24.1 km/h 34 % 0.0 mm 925.0 W/m2 CLR
14:06 34.2 °C 16.1 °C 1012.4 hPa SE 25.9 km/h 25.9 km/h 34 % 0.0 mm 925.0 W/m2 CLR
14:11 34.2 °C 16.1 °C 1012.1 hPa East 20.4 km/h 20.4 km/h 34 % 0.0 mm 928.0 W/m2 CLR
14:16 34.3 °C 16.7 °C 1012.1 hPa SE 25.7 km/h 25.7 km/h 35 % 0.0 mm 962.0 W/m2 CLR
14:21 34.6 °C 16.4 °C 1012.1 hPa SE 24.1 km/h 24.1 km/h 34 % 0.0 mm 1009.0 W/m2 CLR
14:26 34.3 °C 16.7 °C 1012.1 hPa SE 24.1 km/h 24.1 km/h 35 % 0.0 mm 520.0 W/m2 CLR
14:31 34.1 °C 16.9 °C 1012.1 hPa SE 29.6 km/h 29.6 km/h 36 % 0.0 mm 508.0 W/m2 CLR
14:36 33.8 °C 17.5 °C 1012.1 hPa ESE 25.9 km/h 25.9 km/h 38 % 0.0 mm 420.0 W/m2 CLR
14:41 33.9 °C 18.0 °C 1012.1 hPa ESE 27.8 km/h 27.8 km/h 39 % 0.0 mm 1014.0 W/m2 CLR
14:46 34.0 °C 18.1 °C 1012.1 hPa ESE 25.9 km/h 25.9 km/h 39 % 0.0 mm 995.0 W/m2 CLR
14:51 34.2 °C 17.8 °C 1012.1 hPa ESE 29.6 km/h 29.6 km/h 38 % 0.0 mm 951.0 W/m2 CLR
14:56 33.9 °C 18.1 °C 1011.7 hPa ESE 31.5 km/h 31.5 km/h 39 % 0.0 mm 330.0 W/m2 CLR
15:01 33.7 °C 17.8 °C 1011.7 hPa ESE 31.5 km/h 31.5 km/h 39 % 0.0 mm 297.0 W/m2 CLR
15:06 33.8 °C 18.3 °C 1011.4 hPa ESE 29.6 km/h 29.6 km/h 40 % 0.0 mm 438.0 W/m2 CLR
15:11 33.5 °C 18.4 °C 1011.4 hPa SSE 27.8 km/h 27.8 km/h 41 % 0.0 mm 557.0 W/m2 CLR
15:16 33.8 °C 18.3 °C 1011.1 hPa East 33.8 km/h 33.8 km/h 40 % 0.0 mm 671.0 W/m2 CLR
15:21 33.7 °C 18.2 °C 1011.1 hPa ESE 35.2 km/h 35.2 km/h 40 % 0.0 mm 745.0 W/m2 CLR
15:26 33.7 °C 18.7 °C 1011.1 hPa SE 32.2 km/h 32.2 km/h 41 % 0.0 mm 824.0 W/m2 CLR
15:31 34.1 °C 18.2 °C 1011.1 hPa SE 33.3 km/h 33.3 km/h 39 % 0.0 mm 895.0 W/m2 CLR
15:36 34.1 °C 18.6 °C 1011.1 hPa South 24.1 km/h 24.1 km/h 40 % 0.0 mm 861.0 W/m2 CLR
15:41 34.4 °C 18.0 °C 1011.1 hPa SSE 25.7 km/h 25.7 km/h 38 % 0.0 mm 805.0 W/m2 CLR
15:46 34.5 °C 17.7 °C 1010.7 hPa ESE 24.1 km/h 24.1 km/h 37 % 0.0 mm 814.0 W/m2 CLR
15:51 34.3 °C 17.5 °C 1011.1 hPa ESE 29.0 km/h 29.0 km/h 37 % 0.0 mm 803.0 W/m2 CLR
15:56 34.4 °C 17.7 °C 1010.7 hPa ESE 22.2 km/h 22.2 km/h 37 % 0.0 mm 796.0 W/m2 CLR
16:01 34.5 °C 17.7 °C 1010.7 hPa SSE 30.6 km/h 30.6 km/h 37 % 0.0 mm 788.0 W/m2 CLR
16:06 34.4 °C 17.7 °C 1010.7 hPa SE 22.2 km/h 22.2 km/h 37 % 0.0 mm 782.0 W/m2 CLR
16:11 34.4 °C 17.7 °C 1010.7 hPa ESE 29.6 km/h 29.6 km/h 37 % 0.0 mm 777.0 W/m2 CLR
16:16 34.5 °C 18.1 °C 1010.7 hPa SSE 31.5 km/h 31.5 km/h 38 % 0.0 mm 770.0 W/m2 CLR
16:21 34.3 °C 17.5 °C 1010.7 hPa SE 31.5 km/h 31.5 km/h 37 % 0.0 mm 768.0 W/m2 CLR
16:26 34.2 °C 17.9 °C 1010.7 hPa SE 29.0 km/h 29.0 km/h 38 % 0.0 mm 770.0 W/m2 CLR
16:31 33.9 °C 17.6 °C 1010.7 hPa SE 31.5 km/h 31.5 km/h 38 % 0.0 mm 800.0 W/m2 CLR
16:36 34.1 °C 17.8 °C 1010.7 hPa SSE 27.8 km/h 27.8 km/h 38 % 0.0 mm 663.0 W/m2 CLR
16:42 34.1 °C 17.8 °C 1010.7 hPa SE 37.0 km/h 37.0 km/h 38 % 0.0 mm 826.0 W/m2 CLR
16:47 33.9 °C 17.6 °C 1010.7 hPa SE 22.2 km/h 22.2 km/h 38 % 0.0 mm 429.0 W/m2 CLR
16:51 33.7 °C 17.8 °C 1010.7 hPa ESE 27.4 km/h 27.4 km/h 39 % 0.0 mm 251.0 W/m2 CLR
16:56 33.3 °C 17.4 °C 1010.7 hPa ESE 20.9 km/h 20.9 km/h 39 % 0.0 mm 399.0 W/m2 CLR
17:01 33.2 °C 17.4 °C 1010.7 hPa SE 24.1 km/h 24.1 km/h 39 % 0.0 mm 415.0 W/m2 CLR
17:06 33.2 °C 17.3 °C 1010.7 hPa ESE 20.9 km/h 20.9 km/h 39 % 0.0 mm 728.0 W/m2 CLR
17:12 33.3 °C 17.4 °C 1010.4 hPa ESE 29.6 km/h 29.6 km/h 39 % 0.0 mm 457.0 W/m2 CLR
17:17 33.1 °C 18.4 °C 1010.4 hPa East 24.1 km/h 24.1 km/h 42 % 0.0 mm 490.0 W/m2 CLR
17:22 33.2 °C 17.3 °C 1010.4 hPa ESE 25.9 km/h 25.9 km/h 39 % 0.0 mm 290.0 W/m2 CLR
17:27 33.1 °C 16.9 °C 1010.4 hPa SE 31.5 km/h 31.5 km/h 38 % 0.0 mm 367.0 W/m2 CLR
17:31 33.2 °C 18.2 °C 1010.4 hPa SE 24.1 km/h 24.1 km/h 41 % 0.0 mm 494.0 W/m2 CLR
17:36 33.0 °C 18.0 °C 1010.4 hPa SE 22.5 km/h 22.5 km/h 41 % 0.0 mm 339.0 W/m2 CLR
17:42 33.5 °C 16.8 °C 1010.0 hPa SSE 25.9 km/h 25.9 km/h 37 % 0.0 mm 221.0 W/m2 CLR
17:47 33.1 °C 17.3 °C 1010.0 hPa SE 22.5 km/h 22.5 km/h 39 % 0.0 mm 214.0 W/m2 CLR
17:52 32.8 °C 17.0 °C 1010.4 hPa SE 31.5 km/h 31.5 km/h 39 % 0.0 mm 141.0 W/m2 CLR
17:57 32.4 °C 17.4 °C 1010.4 hPa SE 24.1 km/h 24.1 km/h 41 % 0.0 mm 120.0 W/m2 CLR
18:02 31.8 °C 17.3 °C 1010.7 hPa SE 24.1 km/h 24.1 km/h 42 % 0.0 mm 118.0 W/m2 CLR
18:07 31.7 °C 16.8 °C 1010.7 hPa SE 25.7 km/h 25.7 km/h 41 % 0.0 mm 134.0 W/m2 CLR
18:12 31.7 °C 17.2 °C 1010.7 hPa ESE 24.1 km/h 24.1 km/h 42 % 0.0 mm 135.0 W/m2 CLR
18:17 31.4 °C 17.3 °C 1010.7 hPa SE 18.5 km/h 18.5 km/h 43 % 0.0 mm 137.0 W/m2 CLR
18:22 31.4 °C 17.0 °C 1010.7 hPa SE 11.1 km/h 11.1 km/h 42 % 0.0 mm 128.0 W/m2 CLR
18:27 31.5 °C 17.4 °C 1010.7 hPa SE 18.5 km/h 18.5 km/h 43 % 0.0 mm 118.0 W/m2 CLR
18:32 31.3 °C 17.3 °C 1011.1 hPa SE 13.0 km/h 13.0 km/h 43 % 0.0 mm 104.0 W/m2 CLR
18:37 31.2 °C 17.4 °C 1011.1 hPa SE 18.5 km/h 18.5 km/h 44 % 0.0 mm 90.0 W/m2 CLR
18:42 30.9 °C 17.6 °C 1011.7 hPa ESE 9.3 km/h 9.3 km/h 45 % 0.0 mm 81.0 W/m2 CLR
18:47 30.7 °C 17.8 °C 1012.1 hPa ENE 5.6 km/h 5.6 km/h 46 % 0.0 mm 76.0 W/m2 FEW
18:52 30.5 °C 17.6 °C 1012.1 hPa ENE 5.6 km/h 5.6 km/h 46 % 0.0 mm 86.0 W/m2 FEW
18:57 30.4 °C 17.8 °C 1012.1 hPa ENE 11.1 km/h 11.1 km/h 47 % 0.0 mm 102.0 W/m2 CLR
19:02 30.1 °C 17.9 °C 1011.7 hPa East 16.7 km/h 16.7 km/h 48 % 0.0 mm 104.0 W/m2 CLR
19:07 29.8 °C 17.7 °C 1011.4 hPa East 18.5 km/h 18.5 km/h 48 % 0.0 mm 97.0 W/m2 CLR
19:12 29.7 °C 17.5 °C 1011.4 hPa ESE 22.2 km/h 22.2 km/h 48 % 0.0 mm 79.0 W/m2 CLR
19:17 29.6 °C 17.4 °C 1011.4 hPa ESE 22.2 km/h 22.2 km/h 48 % 0.0 mm 70.0 W/m2 FEW
19:22 29.3 °C 18.4 °C 1011.4 hPa East 20.4 km/h 20.4 km/h 52 % 0.0 mm 77.0 W/m2 FEW
19:27 28.7 °C 19.0 °C 1011.4 hPa ESE 22.2 km/h 22.2 km/h 56 % 0.0 mm 86.0 W/m2 FEW
19:32 28.1 °C 19.1 °C 1011.7 hPa East 16.7 km/h 16.7 km/h 58 % 0.0 mm 93.0 W/m2 FEW
19:37 27.9 °C 19.1 °C 1011.7 hPa NNE 7.4 km/h 7.4 km/h 59 % 0.0 mm 97.0 W/m2 CLR
19:42 27.8 °C 19.1 °C 1012.1 hPa Calm     59 % 0.0 mm 97.0 W/m2 CLR
19:47 27.7 °C 19.2 °C 1012.1 hPa ENE 7.4 km/h 7.4 km/h 60 % 0.0 mm 91.0 W/m2 CLR
19:52 27.6 °C 19.2 °C 1012.1 hPa East 16.7 km/h 16.7 km/h 60 % 0.0 mm 81.0 W/m2 CLR
19:57 27.5 °C 18.8 °C 1012.1 hPa ENE 14.8 km/h 14.8 km/h 59 % 0.0 mm 69.0 W/m2 FEW
20:02 27.4 °C 19.0 °C 1012.1 hPa Calm     60 % 0.0 mm 51.0 W/m2 FEW
20:07 27.4 °C 18.9 °C 1012.4 hPa SE 6.4 km/h 6.4 km/h 60 % 0.0 mm 44.0 W/m2 SCT
20:12 27.4 °C 18.7 °C 1012.4 hPa ESE 18.5 km/h 18.5 km/h 59 % 0.0 mm 37.0 W/m2 SCT
20:17 27.3 °C 18.6 °C 1012.8 hPa SE 20.4 km/h 20.4 km/h 59 % 0.0 mm 32.0 W/m2 BKN
20:22 27.3 °C 18.3 °C 1012.4 hPa SE 14.8 km/h 14.8 km/h 58 % 0.0 mm 25.0 W/m2 BKN
20:27 27.2 °C 18.2 °C 1012.4 hPa SE 33.8 km/h 33.8 km/h 58 % 0.0 mm 19.0 W/m2 BKN
20:32 27.1 °C 18.1 °C 1012.8 hPa SSE 27.8 km/h 27.8 km/h 58 % 0.0 mm 14.0 W/m2 BKN
20:37 26.9 °C 18.5 °C 1012.8 hPa SSE 22.2 km/h 22.2 km/h 60 % 0.0 mm 11.0 W/m2 BKN
20:42 26.7 °C 18.6 °C 1012.8 hPa SSE 25.9 km/h 25.9 km/h 61 % 0.0 mm 7.0 W/m2 BKN
20:47 26.7 °C 18.5 °C 1012.8 hPa SE 29.6 km/h 29.6 km/h 61 % 0.0 mm 5.0 W/m2 OVC
20:52 26.6 °C 18.7 °C 1012.8 hPa South 18.5 km/h 18.5 km/h 62 % 0.0 mm 0.0 W/m2 OVC
20:57 26.6 °C 18.4 °C 1013.1 hPa SE 25.9 km/h 25.9 km/h 61 % 0.0 mm 0.0 W/m2 OVC
21:02 26.5 °C 18.4 °C 1013.1 hPa SE 25.9 km/h 25.9 km/h 61 % 0.0 mm 0.0 W/m2 OVC
21:07 26.5 °C 18.4 °C 1013.1 hPa SE 25.9 km/h 25.9 km/h 61 % 0.0 mm 0.0 W/m2 OVC
21:12 26.4 °C 18.3 °C 1013.4 hPa SE 25.9 km/h 25.9 km/h 61 % 0.0 mm 0.0 W/m2 OVC
21:17 26.4 °C 18.5 °C 1013.4 hPa SE 18.5 km/h 18.5 km/h 62 % 0.0 mm 0.0 W/m2 OVC
21:22 26.3 °C 18.4 °C 1013.4 hPa SE 20.4 km/h 20.4 km/h 62 % 0.0 mm 0.0 W/m2 OVC
21:27 26.2 °C 18.6 °C 1013.4 hPa SSE 25.9 km/h 25.9 km/h 63 % 0.0 mm 0.0 W/m2 OVC
21:32 26.1 °C 18.7 °C 1013.4 hPa SE 18.5 km/h 18.5 km/h 64 % 0.0 mm 0.0 W/m2 OVC
21:37 26.0 °C 18.9 °C 1013.4 hPa SSE 31.5 km/h 31.5 km/h 65 % 0.0 mm 0.0 W/m2 OVC
21:42 25.7 °C 19.1 °C 1013.8 hPa SSE 25.9 km/h 25.9 km/h 67 % 0.0 mm 0.0 W/m2 CLR
21:47 25.5 °C 19.2 °C 1014.1 hPa SSE 20.4 km/h 20.4 km/h 68 % 0.0 mm 0.0 W/m2 CLR
21:52 25.7 °C 18.8 °C 1014.1 hPa SSE 24.1 km/h 24.1 km/h 66 % 0.0 mm 0.0 W/m2 CLR
21:57 25.7 °C 18.9 °C 1014.1 hPa SE 31.5 km/h 31.5 km/h 66 % 0.0 mm 0.0 W/m2 CLR
22:02 25.6 °C 18.8 °C 1014.1 hPa SE 20.9 km/h 20.9 km/h 66 % 0.0 mm 0.0 W/m2 CLR
22:07 25.6 °C 18.7 °C 1014.4 hPa SSE 22.2 km/h 22.2 km/h 66 % 0.0 mm 0.0 W/m2 CLR
22:12 25.5 °C 18.7 °C 1014.8 hPa SE 31.5 km/h 31.5 km/h 66 % 0.0 mm 0.0 W/m2 CLR
22:17 25.5 °C 18.7 °C 1015.5 hPa South 13.0 km/h 13.0 km/h 66 % 0.0 mm 0.0 W/m2 CLR
22:22 25.6 °C 18.7 °C 1016.1 hPa SW 9.3 km/h 10.1 km/h 66 % 0.0 mm 0.0 W/m2 CLR
22:27 25.5 °C 18.7 °C 1016.5 hPa SW 9.3 km/h 9.3 km/h 66 % 0.0 mm 0.0 W/m2 CLR
22:32 25.5 °C 18.9 °C 1016.1 hPa Calm     67 % 0.0 mm 0.0 W/m2 CLR
22:37 25.4 °C 18.9 °C 1015.5 hPa Calm     67 % 0.0 mm 0.0 W/m2 CLR
22:43 25.4 °C 18.9 °C 1015.5 hPa Calm     67 % 0.0 mm 0.0 W/m2 CLR
22:48 25.4 °C 18.8 °C 1015.5 hPa Calm     67 % 0.0 mm 0.0 W/m2 CLR
22:53 25.3 °C 18.8 °C 1015.5 hPa Calm     67 % 0.0 mm 0.0 W/m2 CLR
22:58 25.3 °C 18.9 °C 1015.1 hPa Calm     68 % 0.0 mm 0.0 W/m2 CLR
23:03 25.2 °C 18.9 °C 1015.1 hPa Calm     68 % 0.0 mm 0.0 W/m2 CLR
23:08 25.1 °C 18.8 °C 1015.1 hPa Calm     68 % 0.0 mm 0.0 W/m2 CLR
23:13 25.1 °C 18.7 °C 1014.8 hPa ENE 9.7 km/h 9.7 km/h 68 % 0.0 mm 0.0 W/m2 CLR
23:18 24.9 °C 18.9 °C 1014.8 hPa ENE 7.4 km/h 7.4 km/h 69 % 0.0 mm 0.0 W/m2 CLR
23:23 24.8 °C 18.5 °C 1014.4 hPa East 6.4 km/h 6.4 km/h 68 % 0.0 mm 0.0 W/m2 CLR
23:24 24.8 °C 18.5 °C 1014.4 hPa East 7.4 km/h 7.4 km/h 68 % 0.0 mm 0.0 W/m2 CLR
23:29 24.9 °C 18.6 °C 1014.4 hPa ESE 16.7 km/h 16.7 km/h 68 % 0.0 mm 0.0 W/m2 CLR
23:34 24.8 °C 18.7 °C 1014.1 hPa SE 5.6 km/h 5.6 km/h 69 % 0.0 mm 0.0 W/m2 CLR
23:39 24.7 °C 18.2 °C 1013.4 hPa SE 18.5 km/h 18.5 km/h 67 % 0.0 mm 0.0 W/m2 CLR
23:44 24.7 °C 18.4 °C 1013.1 hPa ESE 16.7 km/h 16.7 km/h 68 % 0.0 mm 0.0 W/m2 CLR
23:49 24.6 °C 18.3 °C 1013.1 hPa SE 16.7 km/h 16.7 km/h 68 % 0.0 mm 0.0 W/m2 CLR
23:54 24.6 °C 18.3 °C 1012.8 hPa SE 22.2 km/h 22.2 km/h 68 % 0.0 mm 0.0 W/m2 CLR
23:55 24.6 °C 18.3 °C 1012.8 hPa ESE 22.2 km/h 22.2 km/h 68 % 0.0 mm 0.0 W/m2 CLR
23:59 24.6 °C 18.3 °C 1012.8 hPa SE 18.5 km/h 18.5 km/h 68 % 0.0 mm 0.0 W/m2 CLR
Lo Temps de Massalio
Compliments of Weather Underground - 1.25 mb